sensor_id;sensor_type;location;lat;lon;timestamp;pressure;altitude;pressure_sealevel;temperature;humidity
46111;BME280;31849;55.992;37.252;2023-02-26T00:01:17;96677.94;;;2.47;70.85
46111;BME280;31849;55.992;37.252;2023-02-26T00:06:22;96671.09;;;2.47;70.53
46111;BME280;31849;55.992;37.252;2023-02-26T00:11:29;96662.56;;;2.45;70.13
46111;BME280;31849;55.992;37.252;2023-02-26T00:16:34;96640.50;;;2.35;70.79
46111;BME280;31849;55.992;37.252;2023-02-26T00:21:39;96620.03;;;2.32;70.45
46111;BME280;31849;55.992;37.252;2023-02-26T00:26:44;96613.09;;;2.39;70.54
46111;BME280;31849;55.992;37.252;2023-02-26T00:31:48;96599.78;;;2.14;71.02
46111;BME280;31849;55.992;37.252;2023-02-26T00:37:07;96584.16;;;2.32;70.87
46111;BME280;31849;55.992;37.252;2023-02-26T00:42:14;96576.56;;;2.26;70.42
46111;BME280;31849;55.992;37.252;2023-02-26T00:47:24;96569.34;;;2.50;69.81
46111;BME280;31849;55.992;37.252;2023-02-26T00:52:35;96541.84;;;7.62;58.47
46111;BME280;31849;55.992;37.252;2023-02-26T00:57:42;96541.59;;;4.33;62.56
46111;BME280;31849;55.992;37.252;2023-02-26T01:02:46;96545.09;;;3.93;63.53
46111;BME280;31849;55.992;37.252;2023-02-26T01:07:55;96564.09;;;3.87;64.12
46111;BME280;31849;55.992;37.252;2023-02-26T01:13:04;96548.41;;;3.59;65.03
46111;BME280;31849;55.992;37.252;2023-02-26T01:18:12;96542.91;;;3.77;65.26
46111;BME280;31849;55.992;37.252;2023-02-26T01:23:20;96522.06;;;3.50;65.42
46111;BME280;31849;55.992;37.252;2023-02-26T01:28:27;96520.97;;;3.62;64.64
46111;BME280;31849;55.992;37.252;2023-02-26T01:33:34;96514.41;;;3.49;65.68
46111;BME280;31849;55.992;37.252;2023-02-26T01:38:48;96508.91;;;3.64;65.00
46111;BME280;31849;55.992;37.252;2023-02-26T01:44:02;96489.63;;;3.46;65.91
46111;BME280;31849;55.992;37.252;2023-02-26T01:49:12;96493.47;;;3.27;67.46
46111;BME280;31849;55.992;37.252;2023-02-26T01:54:17;96489.66;;;3.03;66.40
46111;BME280;31849;55.992;37.252;2023-02-26T01:59:24;96488.94;;;2.96;67.13
46111;BME280;31849;55.992;37.252;2023-02-26T02:04:27;96476.25;;;3.30;66.33
46111;BME280;31849;55.992;37.252;2023-02-26T02:09:31;96472.16;;;2.79;67.50
46111;BME280;31849;55.992;37.252;2023-02-26T02:14:44;96459.69;;;3.05;68.23
46111;BME280;31849;55.992;37.252;2023-02-26T02:20:20;96455.06;;;2.78;67.62
46111;BME280;31849;55.992;37.252;2023-02-26T02:31:05;96438.69;;;2.40;69.13
46111;BME280;31849;55.992;37.252;2023-02-26T02:36:15;96456.16;;;2.67;68.25
46111;BME280;31849;55.992;37.252;2023-02-26T02:41:24;96439.06;;;2.66;69.13
46111;BME280;31849;55.992;37.252;2023-02-26T02:46:33;96431.66;;;2.94;67.64
46111;BME280;31849;55.992;37.252;2023-02-26T02:51:44;96437.97;;;2.77;68.24
46111;BME280;31849;55.992;37.252;2023-02-26T02:56:51;96429.06;;;2.97;68.00
46111;BME280;31849;55.992;37.252;2023-02-26T03:02:03;96429.56;;;2.71;68.27
46111;BME280;31849;55.992;37.252;2023-02-26T03:07:09;96419.38;;;2.68;68.71
46111;BME280;31849;55.992;37.252;2023-02-26T03:12:13;96404.97;;;2.60;68.27
46111;BME280;31849;55.992;37.252;2023-02-26T03:17:25;96408.56;;;2.52;69.81
46111;BME280;31849;55.992;37.252;2023-02-26T03:22:34;96395.03;;;2.43;70.02
46111;BME280;31849;55.992;37.252;2023-02-26T03:27:45;96400.91;;;2.50;69.73
46111;BME280;31849;55.992;37.252;2023-02-26T03:32:57;96396.59;;;2.51;70.31
46111;BME280;31849;55.992;37.252;2023-02-26T03:38:05;96396.34;;;2.19;70.52
46111;BME280;31849;55.992;37.252;2023-02-26T03:43:15;96395.13;;;2.39;70.13
46111;BME280;31849;55.992;37.252;2023-02-26T03:48:24;96401.53;;;2.16;71.55
46111;BME280;31849;55.992;37.252;2023-02-26T03:53:33;96404.44;;;2.44;70.47
46111;BME280;31849;55.992;37.252;2023-02-26T03:58:38;96403.00;;;2.29;70.31
46111;BME280;31849;55.992;37.252;2023-02-26T04:03:46;96404.59;;;2.37;70.54
46111;BME280;31849;55.992;37.252;2023-02-26T04:08:51;96413.41;;;2.22;70.76
46111;BME280;31849;55.992;37.252;2023-02-26T04:13:54;96418.38;;;2.29;70.17
46111;BME280;31849;55.992;37.252;2023-02-26T04:18:59;96431.25;;;2.26;70.79
46111;BME280;31849;55.992;37.252;2023-02-26T04:24:03;96436.34;;;2.29;71.43
46111;BME280;31849;55.992;37.252;2023-02-26T04:29:06;96431.84;;;2.41;69.66
46111;BME280;31849;55.992;37.252;2023-02-26T04:34:11;96454.38;;;2.25;70.71
46111;BME280;31849;55.992;37.252;2023-02-26T04:39:14;96446.59;;;2.29;70.91
46111;BME280;31849;55.992;37.252;2023-02-26T04:44:18;96466.00;;;2.43;70.00
46111;BME280;31849;55.992;37.252;2023-02-26T04:49:23;96466.59;;;2.57;69.64
46111;BME280;31849;55.992;37.252;2023-02-26T04:54:26;96476.56;;;2.73;69.06
46111;BME280;31849;55.992;37.252;2023-02-26T04:59:29;96473.13;;;2.74;68.61
46111;BME280;31849;55.992;37.252;2023-02-26T05:04:34;96494.38;;;2.80;69.06
46111;BME280;31849;55.992;37.252;2023-02-26T05:09:38;96500.41;;;2.79;69.49
46111;BME280;31849;55.992;37.252;2023-02-26T05:14:41;96500.06;;;2.96;68.33
46111;BME280;31849;55.992;37.252;2023-02-26T05:19:46;96520.47;;;3.03;68.14
46111;BME280;31849;55.992;37.252;2023-02-26T05:24:49;96530.91;;;2.93;68.76
46111;BME280;31849;55.992;37.252;2023-02-26T05:29:52;96540.47;;;2.87;67.94
46111;BME280;31849;55.992;37.252;2023-02-26T05:34:57;96543.63;;;2.99;67.70
46111;BME280;31849;55.992;37.252;2023-02-26T05:40:01;96556.91;;;3.20;67.13
46111;BME280;31849;55.992;37.252;2023-02-26T05:45:06;96572.75;;;2.98;68.06
46111;BME280;31849;55.992;37.252;2023-02-26T05:50:11;96568.03;;;3.22;66.77
46111;BME280;31849;55.992;37.252;2023-02-26T05:55:15;96587.09;;;3.07;67.49
46111;BME280;31849;55.992;37.252;2023-02-26T06:00:19;96598.94;;;3.16;67.25
46111;BME280;31849;55.992;37.252;2023-02-26T06:05:24;96596.34;;;3.16;67.59
46111;BME280;31849;55.992;37.252;2023-02-26T06:10:27;96604.66;;;3.30;66.88
46111;BME280;31849;55.992;37.252;2023-02-26T06:15:31;96609.47;;;3.46;66.04
46111;BME280;31849;55.992;37.252;2023-02-26T06:20:36;96621.91;;;3.67;65.93
46111;BME280;31849;55.992;37.252;2023-02-26T06:25:40;96625.06;;;3.80;65.52
46111;BME280;31849;55.992;37.252;2023-02-26T06:30:43;96632.63;;;3.88;65.35
46111;BME280;31849;55.992;37.252;2023-02-26T06:35:48;96630.25;;;4.18;63.83
46111;BME280;31849;55.992;37.252;2023-02-26T06:40:52;96638.31;;;4.40;63.62
46111;BME280;31849;55.992;37.252;2023-02-26T06:45:56;96643.47;;;4.40;63.59
46111;BME280;31849;55.992;37.252;2023-02-26T06:51:02;96650.94;;;4.51;63.62
46111;BME280;31849;55.992;37.252;2023-02-26T06:56:08;96659.88;;;4.34;63.28
46111;BME280;31849;55.992;37.252;2023-02-26T07:01:11;96671.13;;;4.30;62.85
46111;BME280;31849;55.992;37.252;2023-02-26T07:06:16;96678.53;;;4.44;62.90
46111;BME280;31849;55.992;37.252;2023-02-26T07:11:28;96678.13;;;4.23;62.92
46111;BME280;31849;55.992;37.252;2023-02-26T07:16:32;96682.28;;;4.31;62.86
46111;BME280;31849;55.992;37.252;2023-02-26T07:21:37;96689.41;;;4.18;63.02
46111;BME280;31849;55.992;37.252;2023-02-26T07:26:40;96698.31;;;4.01;63.28
46111;BME280;31849;55.992;37.252;2023-02-26T07:31:44;96697.03;;;4.21;62.27
46111;BME280;31849;55.992;37.252;2023-02-26T07:36:49;96704.59;;;4.29;61.64
46111;BME280;31849;55.992;37.252;2023-02-26T07:41:54;96708.97;;;4.25;62.21
46111;BME280;31849;55.992;37.252;2023-02-26T07:46:57;96706.34;;;4.27;61.57
46111;BME280;31849;55.992;37.252;2023-02-26T07:52:03;96715.56;;;4.37;60.83
46111;BME280;31849;55.992;37.252;2023-02-26T07:57:08;96723.91;;;4.47;61.06
46111;BME280;31849;55.992;37.252;2023-02-26T08:02:12;96730.34;;;4.68;60.90
46111;BME280;31849;55.992;37.252;2023-02-26T08:07:17;96732.34;;;4.91;59.79
46111;BME280;31849;55.992;37.252;2023-02-26T08:12:20;96755.03;;;4.75;60.40
46111;BME280;31849;55.992;37.252;2023-02-26T08:17:24;96755.69;;;4.85;59.93
46111;BME280;31849;55.992;37.252;2023-02-26T08:22:28;96781.28;;;4.91;59.93
46111;BME280;31849;55.992;37.252;2023-02-26T08:27:32;96794.78;;;5.01;59.17
46111;BME280;31849;55.992;37.252;2023-02-26T08:32:36;96793.13;;;5.70;57.85
46111;BME280;31849;55.992;37.252;2023-02-26T08:37:41;96789.91;;;5.60;57.93
46111;BME280;31849;55.992;37.252;2023-02-26T08:42:45;96789.53;;;5.05;57.70
46111;BME280;31849;55.992;37.252;2023-02-26T08:47:49;96830.84;;;5.01;57.86
46111;BME280;31849;55.992;37.252;2023-02-26T08:52:59;96833.19;;;5.11;57.86
46111;BME280;31849;55.992;37.252;2023-02-26T08:58:03;96831.44;;;5.12;57.48
46111;BME280;31849;55.992;37.252;2023-02-26T09:03:06;96834.69;;;4.83;58.47
46111;BME280;31849;55.992;37.252;2023-02-26T09:08:11;96840.28;;;4.61;57.69
46111;BME280;31849;55.992;37.252;2023-02-26T09:13:17;96851.59;;;4.95;57.77
46111;BME280;31849;55.992;37.252;2023-02-26T09:18:20;96865.41;;;4.48;58.03
46111;BME280;31849;55.992;37.252;2023-02-26T09:23:25;96876.25;;;4.64;57.00
46111;BME280;31849;55.992;37.252;2023-02-26T09:28:29;96874.06;;;4.44;57.31
46111;BME280;31849;55.992;37.252;2023-02-26T09:33:32;96869.09;;;4.35;57.44
46111;BME280;31849;55.992;37.252;2023-02-26T09:38:38;96894.22;;;4.22;57.08
46111;BME280;31849;55.992;37.252;2023-02-26T09:44:03;96884.69;;;4.26;56.84
46111;BME280;31849;55.992;37.252;2023-02-26T09:49:18;96886.53;;;4.20;57.15
46111;BME280;31849;55.992;37.252;2023-02-26T09:54:26;96893.91;;;4.37;57.47
46111;BME280;31849;55.992;37.252;2023-02-26T09:59:32;96905.69;;;4.04;58.00
46111;BME280;31849;55.992;37.252;2023-02-26T10:04:49;96908.78;;;3.72;58.23
46111;BME280;31849;55.992;37.252;2023-02-26T10:10:03;96912.44;;;4.08;57.01
46111;BME280;31849;55.992;37.252;2023-02-26T10:15:11;96911.94;;;4.37;56.84
46111;BME280;31849;55.992;37.252;2023-02-26T10:20:19;96905.09;;;4.35;56.73
46111;BME280;31849;55.992;37.252;2023-02-26T10:25:27;96908.84;;;4.64;57.08
46111;BME280;31849;55.992;37.252;2023-02-26T10:30:35;96918.06;;;4.75;56.21
46111;BME280;31849;55.992;37.252;2023-02-26T10:35:53;96926.38;;;4.90;56.12
46111;BME280;31849;55.992;37.252;2023-02-26T10:41:04;96946.09;;;4.89;55.69
46111;BME280;31849;55.992;37.252;2023-02-26T10:46:21;96936.94;;;4.76;55.83
46111;BME280;31849;55.992;37.252;2023-02-26T10:51:31;96955.66;;;4.37;56.25
46111;BME280;31849;55.992;37.252;2023-02-26T10:56:37;96951.22;;;4.47;56.47
46111;BME280;31849;55.992;37.252;2023-02-26T11:01:41;96966.34;;;4.16;57.15
46111;BME280;31849;55.992;37.252;2023-02-26T11:06:49;96969.94;;;4.05;57.64
46111;BME280;31849;55.992;37.252;2023-02-26T11:12:04;96960.94;;;4.30;56.19
46111;BME280;31849;55.992;37.252;2023-02-26T11:17:11;96955.31;;;4.57;56.29
46111;BME280;31849;55.992;37.252;2023-02-26T11:22:16;96966.66;;;4.91;55.07
46111;BME280;31849;55.992;37.252;2023-02-26T11:27:25;96962.38;;;4.91;55.41
46111;BME280;31849;55.992;37.252;2023-02-26T11:32:30;96985.19;;;4.66;55.81
46111;BME280;31849;55.992;37.252;2023-02-26T11:37:35;97032.38;;;4.14;57.88
46111;BME280;31849;55.992;37.252;2023-02-26T11:42:44;97033.88;;;3.69;58.70
46111;BME280;31849;55.992;37.252;2023-02-26T11:48:08;97037.16;;;3.81;58.43
46111;BME280;31849;55.992;37.252;2023-02-26T11:53:17;97023.47;;;3.15;59.89
46111;BME280;31849;55.992;37.252;2023-02-26T11:58:23;97026.59;;;3.39;59.36
46111;BME280;31849;55.992;37.252;2023-02-26T12:03:30;97048.22;;;3.87;58.28
46111;BME280;31849;55.992;37.252;2023-02-26T12:08:35;97053.09;;;4.04;57.88
46111;BME280;31849;55.992;37.252;2023-02-26T12:13:48;97051.09;;;4.23;57.41
46111;BME280;31849;55.992;37.252;2023-02-26T12:19:01;97057.88;;;4.29;57.76
46111;BME280;31849;55.992;37.252;2023-02-26T12:24:28;97055.91;;;4.42;55.86
46111;BME280;31849;55.992;37.252;2023-02-26T12:29:58;97067.47;;;4.18;56.06
46111;BME280;31849;55.992;37.252;2023-02-26T12:46:09;97051.53;;;4.49;54.03
46111;BME280;31849;55.992;37.252;2023-02-26T12:51:24;97070.94;;;4.14;54.29
46111;BME280;31849;55.992;37.252;2023-02-26T12:57:08;97076.59;;;3.78;54.41
46111;BME280;31849;55.992;37.252;2023-02-26T13:02:40;97096.94;;;3.27;54.58
46111;BME280;31849;55.992;37.252;2023-02-26T13:07:58;97102.97;;;3.23;54.63
46111;BME280;31849;55.992;37.252;2023-02-26T13:13:16;97107.59;;;2.91;53.67
46111;BME280;31849;55.992;37.252;2023-02-26T13:18:27;97134.38;;;2.58;53.05
46111;BME280;31849;55.992;37.252;2023-02-26T13:23:36;97144.75;;;2.44;52.99
46111;BME280;31849;55.992;37.252;2023-02-26T13:28:44;97166.25;;;2.29;53.49
46111;BME280;31849;55.992;37.252;2023-02-26T13:33:52;97173.28;;;1.93;53.81
46111;BME280;31849;55.992;37.252;2023-02-26T13:39:08;97184.47;;;1.70;52.41
46111;BME280;31849;55.992;37.252;2023-02-26T13:44:27;97180.03;;;2.05;52.69
46111;BME280;31849;55.992;37.252;2023-02-26T13:49:45;97190.44;;;1.66;52.93
46111;BME280;31849;55.992;37.252;2023-02-26T13:54:52;97200.72;;;1.63;53.40
46111;BME280;31849;55.992;37.252;2023-02-26T14:00:03;97204.97;;;1.70;53.35
46111;BME280;31849;55.992;37.252;2023-02-26T14:05:34;97221.16;;;1.79;52.72
46111;BME280;31849;55.992;37.252;2023-02-26T14:10:44;97228.88;;;1.63;53.68
46111;BME280;31849;55.992;37.252;2023-02-26T14:15:55;97246.91;;;1.32;54.89
46111;BME280;31849;55.992;37.252;2023-02-26T14:21:37;97241.72;;;1.52;54.60
46111;BME280;31849;55.992;37.252;2023-02-26T14:26:45;97235.78;;;1.43;54.61
46111;BME280;31849;55.992;37.252;2023-02-26T14:32:03;97259.69;;;1.40;53.89
46111;BME280;31849;55.992;37.252;2023-02-26T14:37:11;97266.53;;;1.16;55.02
46111;BME280;31849;55.992;37.252;2023-02-26T14:42:19;97281.88;;;1.18;55.22
46111;BME280;31849;55.992;37.252;2023-02-26T14:47:24;97292.13;;;1.09;55.42
46111;BME280;31849;55.992;37.252;2023-02-26T14:58:34;97302.34;;;0.82;57.03
46111;BME280;31849;55.992;37.252;2023-02-26T15:09:23;97316.78;;;0.66;57.82
46111;BME280;31849;55.992;37.252;2023-02-26T15:14:52;97315.13;;;0.82;58.12
46111;BME280;31849;55.992;37.252;2023-02-26T15:20:11;97337.31;;;0.97;57.49
46111;BME280;31849;55.992;37.252;2023-02-26T15:25:27;97344.06;;;0.61;58.39
46111;BME280;31849;55.992;37.252;2023-02-26T15:30:33;97351.69;;;0.47;58.17
46111;BME280;31849;55.992;37.252;2023-02-26T15:35:37;97366.16;;;0.38;58.24
46111;BME280;31849;55.992;37.252;2023-02-26T15:40:41;97368.72;;;0.45;58.54
46111;BME280;31849;55.992;37.252;2023-02-26T15:45:47;97373.03;;;0.62;58.14
46111;BME280;31849;55.992;37.252;2023-02-26T15:50:52;97381.50;;;0.45;57.48
46111;BME280;31849;55.992;37.252;2023-02-26T15:55:58;97392.56;;;0.40;57.50
46111;BME280;31849;55.992;37.252;2023-02-26T16:01:12;97402.00;;;0.58;56.38
46111;BME280;31849;55.992;37.252;2023-02-26T16:06:22;97408.81;;;0.49;56.59
46111;BME280;31849;55.992;37.252;2023-02-26T16:11:29;97427.56;;;0.50;55.91
46111;BME280;31849;55.992;37.252;2023-02-26T16:16:40;97425.78;;;0.35;55.68
46111;BME280;31849;55.992;37.252;2023-02-26T16:21:44;97441.09;;;0.33;55.58
46111;BME280;31849;55.992;37.252;2023-02-26T16:26:51;97417.91;;;0.03;55.40
46111;BME280;31849;55.992;37.252;2023-02-26T16:32:00;97455.34;;;-0.04;55.57
46111;BME280;31849;55.992;37.252;2023-02-26T16:37:23;97456.22;;;-0.01;55.62
46111;BME280;31849;55.992;37.252;2023-02-26T16:42:37;97474.16;;;0.07;54.74
46111;BME280;31849;55.992;37.252;2023-02-26T16:47:51;97485.34;;;0.23;55.15
46111;BME280;31849;55.992;37.252;2023-02-26T16:52:59;97505.69;;;0.08;55.40
46111;BME280;31849;55.992;37.252;2023-02-26T16:58:06;97510.78;;;0.06;54.90
46111;BME280;31849;55.992;37.252;2023-02-26T17:03:14;97519.31;;;0.07;54.74
46111;BME280;31849;55.992;37.252;2023-02-26T17:08:19;97525.25;;;0.04;55.04
46111;BME280;31849;55.992;37.252;2023-02-26T17:13:26;97529.56;;;0.13;54.36
46111;BME280;31849;55.992;37.252;2023-02-26T17:18:31;97545.69;;;0.07;53.92
46111;BME280;31849;55.992;37.252;2023-02-26T17:23:36;97539.69;;;-0.01;54.50
46111;BME280;31849;55.992;37.252;2023-02-26T17:28:41;97547.31;;;-0.07;54.27
46111;BME280;31849;55.992;37.252;2023-02-26T17:33:47;97547.31;;;-0.07;54.37
46111;BME280;31849;55.992;37.252;2023-02-26T17:38:52;97555.88;;;-0.01;54.40
46111;BME280;31849;55.992;37.252;2023-02-26T17:43:55;97568.44;;;-0.22;54.68
46111;BME280;31849;55.992;37.252;2023-02-26T17:49:00;97575.38;;;-0.10;54.39
46111;BME280;31849;55.992;37.252;2023-02-26T17:54:04;97584.63;;;-0.20;54.58
46111;BME280;31849;55.992;37.252;2023-02-26T17:59:08;97580.25;;;-0.33;54.89
46111;BME280;31849;55.992;37.252;2023-02-26T18:04:15;97591.47;;;-0.19;54.69
46111;BME280;31849;55.992;37.252;2023-02-26T18:09:18;97597.56;;;-0.05;54.03
46111;BME280;31849;55.992;37.252;2023-02-26T18:14:22;97603.38;;;-0.18;54.64
46111;BME280;31849;55.992;37.252;2023-02-26T18:19:27;97621.38;;;-0.09;54.51
46111;BME280;31849;55.992;37.252;2023-02-26T18:24:30;97627.41;;;0.01;54.66
46111;BME280;31849;55.992;37.252;2023-02-26T18:29:34;97631.63;;;-0.06;54.50
46111;BME280;31849;55.992;37.252;2023-02-26T18:34:39;97639.28;;;-0.06;54.93
46111;BME280;31849;55.992;37.252;2023-02-26T18:39:43;97654.66;;;-0.01;54.75
46111;BME280;31849;55.992;37.252;2023-02-26T18:44:46;97669.94;;;-0.07;54.80
46111;BME280;31849;55.992;37.252;2023-02-26T18:49:52;97663.06;;;-0.13;55.07
46111;BME280;31849;55.992;37.252;2023-02-26T18:54:55;97685.06;;;-0.23;54.97
46111;BME280;31849;55.992;37.252;2023-02-26T18:59:59;97680.06;;;-0.13;54.93
46111;BME280;31849;55.992;37.252;2023-02-26T19:05:07;97684.41;;;-0.06;54.57
46111;BME280;31849;55.992;37.252;2023-02-26T19:10:11;97692.03;;;-0.11;55.14
46111;BME280;31849;55.992;37.252;2023-02-26T19:15:15;97707.38;;;-0.09;54.64
46111;BME280;31849;55.992;37.252;2023-02-26T19:20:20;97704.59;;;-0.28;54.92
46111;BME280;31849;55.992;37.252;2023-02-26T19:25:24;97720.50;;;-0.49;55.66
46111;BME280;31849;55.992;37.252;2023-02-26T19:30:30;97723.84;;;-0.53;55.49
46111;BME280;31849;55.992;37.252;2023-02-26T19:35:35;97744.88;;;-0.07;55.19
46111;BME280;31849;55.992;37.252;2023-02-26T19:40:38;97756.81;;;-0.07;54.52
46111;BME280;31849;55.992;37.252;2023-02-26T19:45:42;97758.28;;;-0.25;54.77
46111;BME280;31849;55.992;37.252;2023-02-26T19:50:47;97760.06;;;-0.19;54.91
46111;BME280;31849;55.992;37.252;2023-02-26T19:55:52;97761.03;;;-0.08;54.94
46111;BME280;31849;55.992;37.252;2023-02-26T20:00:56;97779.66;;;-0.16;54.83
46111;BME280;31849;55.992;37.252;2023-02-26T20:06:01;97787.25;;;-0.21;54.66
46111;BME280;31849;55.992;37.252;2023-02-26T20:11:05;97794.97;;;-0.18;54.41
46111;BME280;31849;55.992;37.252;2023-02-26T20:16:09;97807.31;;;-0.50;54.81
46111;BME280;31849;55.992;37.252;2023-02-26T20:21:14;97809.34;;;-0.25;54.42
46111;BME280;31849;55.992;37.252;2023-02-26T20:26:18;97817.72;;;-0.35;54.43
46111;BME280;31849;55.992;37.252;2023-02-26T20:31:21;97821.81;;;-0.46;54.58
46111;BME280;31849;55.992;37.252;2023-02-26T20:36:27;97833.91;;;-0.33;54.74
46111;BME280;31849;55.992;37.252;2023-02-26T20:41:30;97842.19;;;-0.49;54.98
46111;BME280;31849;55.992;37.252;2023-02-26T20:46:34;97859.31;;;-0.42;54.75
46111;BME280;31849;55.992;37.252;2023-02-26T20:51:41;97860.59;;;-0.14;54.25
46111;BME280;31849;55.992;37.252;2023-02-26T20:56:45;97883.09;;;-0.46;54.77
46111;BME280;31849;55.992;37.252;2023-02-26T21:01:49;97900.25;;;-0.38;54.64
46111;BME280;31849;55.992;37.252;2023-02-26T21:06:56;97904.56;;;-0.35;54.57
46111;BME280;31849;55.992;37.252;2023-02-26T21:12:14;97906.16;;;-0.40;54.55
46111;BME280;31849;55.992;37.252;2023-02-26T21:17:17;97916.03;;;-0.62;54.97
46111;BME280;31849;55.992;37.252;2023-02-26T21:22:22;97922.88;;;-0.61;55.52
46111;BME280;31849;55.992;37.252;2023-02-26T21:27:26;97926.50;;;-0.46;55.01
46111;BME280;31849;55.992;37.252;2023-02-26T21:32:29;97950.16;;;-0.57;55.12
46111;BME280;31849;55.992;37.252;2023-02-26T21:37:34;97961.13;;;-0.62;55.18
46111;BME280;31849;55.992;37.252;2023-02-26T21:42:38;97964.66;;;-0.54;55.03
46111;BME280;31849;55.992;37.252;2023-02-26T21:47:42;97977.94;;;-0.74;55.41
46111;BME280;31849;55.992;37.252;2023-02-26T21:52:47;97991.81;;;-0.59;55.33
46111;BME280;31849;55.992;37.252;2023-02-26T21:57:50;98011.16;;;-0.71;55.62
46111;BME280;31849;55.992;37.252;2023-02-26T22:02:53;98022.91;;;-0.79;55.70
46111;BME280;31849;55.992;37.252;2023-02-26T22:07:58;98029.88;;;-0.70;55.80
46111;BME280;31849;55.992;37.252;2023-02-26T22:13:02;98035.34;;;-0.51;54.67
46111;BME280;31849;55.992;37.252;2023-02-26T22:18:06;98042.00;;;-0.60;55.18
46111;BME280;31849;55.992;37.252;2023-02-26T22:23:11;98060.09;;;-0.49;54.86
46111;BME280;31849;55.992;37.252;2023-02-26T22:28:14;98077.56;;;-0.69;55.02
46111;BME280;31849;55.992;37.252;2023-02-26T22:33:17;98091.31;;;-0.62;55.05
46111;BME280;31849;55.992;37.252;2023-02-26T22:38:22;98106.53;;;-0.67;55.03
46111;BME280;31849;55.992;37.252;2023-02-26T22:43:26;98116.44;;;-0.82;54.66
46111;BME280;31849;55.992;37.252;2023-02-26T22:48:29;98123.16;;;-0.86;54.78
46111;BME280;31849;55.992;37.252;2023-02-26T22:53:34;98136.50;;;-0.99;54.70
46111;BME280;31849;55.992;37.252;2023-02-26T22:58:37;98150.66;;;-0.74;54.50
46111;BME280;31849;55.992;37.252;2023-02-26T23:03:41;98147.16;;;-0.78;54.69
46111;BME280;31849;55.992;37.252;2023-02-26T23:08:46;98151.34;;;-0.81;54.17
46111;BME280;31849;55.992;37.252;2023-02-26T23:13:49;98177.41;;;-0.95;54.31
46111;BME280;31849;55.992;37.252;2023-02-26T23:18:53;98162.75;;;-1.03;54.33
46111;BME280;31849;55.992;37.252;2023-02-26T23:23:58;98185.75;;;-1.02;54.20
46111;BME280;31849;55.992;37.252;2023-02-26T23:29:01;98175.88;;;-1.25;54.34
46111;BME280;31849;55.992;37.252;2023-02-26T23:34:07;98206.94;;;-1.41;54.34
46111;BME280;31849;55.992;37.252;2023-02-26T23:39:13;98212.91;;;-1.04;53.96
46111;BME280;31849;55.992;37.252;2023-02-26T23:44:16;98213.94;;;-0.96;54.21
46111;BME280;31849;55.992;37.252;2023-02-26T23:49:20;98233.13;;;-1.12;54.17
46111;BME280;31849;55.992;37.252;2023-02-26T23:54:25;98252.38;;;-1.25;53.99
46111;BME280;31849;55.992;37.252;2023-02-26T23:59:28;98249.00;;;-1.24;53.88
